sensor_id;sensor_type;location;lat;lon;timestamp;P1;durP1;ratioP1;P2;durP2;ratioP2
47367;SDS011;34646;47.964;7.982;2023-04-01T00:03:35;14.20;;;3.10;;
47367;SDS011;34646;47.964;7.982;2023-04-01T00:09:36;10.97;;;2.40;;
47367;SDS011;34646;47.964;7.982;2023-04-01T00:15:37;9.43;;;2.70;;
47367;SDS011;34646;47.964;7.982;2023-04-01T00:21:38;7.60;;;2.07;;
47367;SDS011;34646;47.964;7.982;2023-04-01T00:27:39;9.57;;;2.20;;
47367;SDS011;34646;47.964;7.982;2023-04-01T00:33:40;10.53;;;2.37;;
47367;SDS011;34646;47.964;7.982;2023-04-01T00:39:41;10.65;;;2.88;;
47367;SDS011;34646;47.964;7.982;2023-04-01T00:45:42;8.60;;;3.13;;
47367;SDS011;34646;47.964;7.982;2023-04-01T00:51:45;8.40;;;2.70;;
47367;SDS011;34646;47.964;7.982;2023-04-01T00:57:48;8.40;;;2.83;;
47367;SDS011;34646;47.964;7.982;2023-04-01T01:03:53;7.30;;;1.98;;
47367;SDS011;34646;47.964;7.982;2023-04-01T01:16:25;5.43;;;2.00;;
47367;SDS011;34646;47.964;7.982;2023-04-01T01:28:57;6.65;;;2.10;;
47367;SDS011;34646;47.964;7.982;2023-04-01T01:35:24;8.13;;;1.88;;
47367;SDS011;34646;47.964;7.982;2023-04-01T01:41:26;7.35;;;2.13;;
47367;SDS011;34646;47.964;7.982;2023-04-01T01:47:28;7.15;;;2.30;;
47367;SDS011;34646;47.964;7.982;2023-04-01T01:53:30;7.82;;;1.90;;
47367;SDS011;34646;47.964;7.982;2023-04-01T01:59:31;8.77;;;2.03;;
47367;SDS011;34646;47.964;7.982;2023-04-01T02:05:35;6.07;;;1.90;;
47367;SDS011;34646;47.964;7.982;2023-04-01T02:11:43;8.27;;;1.98;;
47367;SDS011;34646;47.964;7.982;2023-04-01T02:17:49;5.28;;;2.00;;
47367;SDS011;34646;47.964;7.982;2023-04-01T02:23:51;7.40;;;2.05;;
47367;SDS011;34646;47.964;7.982;2023-04-01T02:29:54;5.65;;;1.85;;
47367;SDS011;34646;47.964;7.982;2023-04-01T02:35:55;6.57;;;1.83;;
47367;SDS011;34646;47.964;7.982;2023-04-01T02:41:56;4.73;;;1.77;;
47367;SDS011;34646;47.964;7.982;2023-04-01T02:47:57;7.23;;;2.13;;
47367;SDS011;34646;47.964;7.982;2023-04-01T02:53:58;6.30;;;1.97;;
47367;SDS011;34646;47.964;7.982;2023-04-01T02:59:59;6.00;;;1.70;;
47367;SDS011;34646;47.964;7.982;2023-04-01T03:06:07;6.60;;;2.00;;
47367;SDS011;34646;47.964;7.982;2023-04-01T03:12:09;4.30;;;1.75;;
47367;SDS011;34646;47.964;7.982;2023-04-01T03:18:20;4.27;;;1.60;;
47367;SDS011;34646;47.964;7.982;2023-04-01T03:24:21;5.00;;;1.60;;
47367;SDS011;34646;47.964;7.982;2023-04-01T03:30:22;5.70;;;2.00;;
47367;SDS011;34646;47.964;7.982;2023-04-01T03:36:24;5.30;;;1.50;;
47367;SDS011;34646;47.964;7.982;2023-04-01T03:42:25;7.13;;;1.40;;
47367;SDS011;34646;47.964;7.982;2023-04-01T03:48:26;2.90;;;1.17;;
47367;SDS011;34646;47.964;7.982;2023-04-01T03:54:27;3.70;;;1.40;;
47367;SDS011;34646;47.964;7.982;2023-04-01T04:00:31;3.03;;;1.23;;
47367;SDS011;34646;47.964;7.982;2023-04-01T04:06:33;2.97;;;1.15;;
47367;SDS011;34646;47.964;7.982;2023-04-01T04:12:34;3.88;;;1.33;;
47367;SDS011;34646;47.964;7.982;2023-04-01T04:18:35;6.73;;;1.70;;
47367;SDS011;34646;47.964;7.982;2023-04-01T04:24:36;3.03;;;1.25;;
47367;SDS011;34646;47.964;7.982;2023-04-01T04:30:43;3.80;;;1.40;;
47367;SDS011;34646;47.964;7.982;2023-04-01T04:36:44;5.27;;;1.20;;
47367;SDS011;34646;47.964;7.982;2023-04-01T04:42:46;3.15;;;1.38;;
47367;SDS011;34646;47.964;7.982;2023-04-01T04:48:49;5.10;;;1.38;;
47367;SDS011;34646;47.964;7.982;2023-04-01T04:54:50;4.93;;;1.47;;
47367;SDS011;34646;47.964;7.982;2023-04-01T05:00:51;3.67;;;1.13;;
47367;SDS011;34646;47.964;7.982;2023-04-01T05:06:57;5.10;;;1.30;;
47367;SDS011;34646;47.964;7.982;2023-04-01T05:12:58;5.60;;;1.53;;
47367;SDS011;34646;47.964;7.982;2023-04-01T05:25:00;3.30;;;1.08;;
47367;SDS011;34646;47.964;7.982;2023-04-01T05:37:09;5.55;;;1.00;;
47367;SDS011;34646;47.964;7.982;2023-04-01T05:43:11;4.05;;;1.10;;
47367;SDS011;34646;47.964;7.982;2023-04-01T05:49:13;3.15;;;1.33;;
47367;SDS011;34646;47.964;7.982;2023-04-01T05:55:13;2.00;;;0.67;;
47367;SDS011;34646;47.964;7.982;2023-04-01T06:01:14;2.10;;;0.80;;
47367;SDS011;34646;47.964;7.982;2023-04-01T06:19:42;3.63;;;1.20;;
47367;SDS011;34646;47.964;7.982;2023-04-01T06:32:10;2.80;;;1.00;;
47367;SDS011;34646;47.964;7.982;2023-04-01T06:38:21;2.67;;;0.98;;
47367;SDS011;34646;47.964;7.982;2023-04-01T06:51:01;2.22;;;1.00;;
47367;SDS011;34646;47.964;7.982;2023-04-01T06:57:36;1.92;;;0.43;;
47367;SDS011;34646;47.964;7.982;2023-04-01T07:03:58;3.47;;;0.70;;
47367;SDS011;34646;47.964;7.982;2023-04-01T07:10:05;3.72;;;0.82;;
47367;SDS011;34646;47.964;7.982;2023-04-01T07:23:08;3.00;;;1.00;;
47367;SDS011;34646;47.964;7.982;2023-04-01T07:29:32;5.28;;;0.90;;
47367;SDS011;34646;47.964;7.982;2023-04-01T07:35:38;5.00;;;1.02;;
47367;SDS011;34646;47.964;7.982;2023-04-01T07:55:09;4.18;;;1.05;;
47367;SDS011;34646;47.964;7.982;2023-04-01T08:01:23;7.03;;;1.00;;
47367;SDS011;34646;47.964;7.982;2023-04-01T08:07:42;4.18;;;1.00;;
47367;SDS011;34646;47.964;7.982;2023-04-01T08:21:24;3.03;;;1.25;;
47367;SDS011;34646;47.964;7.982;2023-04-01T08:28:11;8.40;;;0.90;;
47367;SDS011;34646;47.964;7.982;2023-04-01T08:34:11;6.22;;;1.10;;
47367;SDS011;34646;47.964;7.982;2023-04-01T08:40:53;7.45;;;0.90;;
47367;SDS011;34646;47.964;7.982;2023-04-01T09:07:32;12.43;;;1.33;;
47367;SDS011;34646;47.964;7.982;2023-04-01T09:26:23;15.18;;;1.40;;
47367;SDS011;34646;47.964;7.982;2023-04-01T09:32:53;13.90;;;1.38;;
47367;SDS011;34646;47.964;7.982;2023-04-01T10:44:11;7.78;;;1.05;;
47367;SDS011;34646;47.964;7.982;2023-04-01T11:22:34;3.72;;;0.88;;
47367;SDS011;34646;47.964;7.982;2023-04-01T13:04:15;5.82;;;0.68;;
47367;SDS011;34646;47.964;7.982;2023-04-01T13:10:38;8.00;;;1.45;;
47367;SDS011;34646;47.964;7.982;2023-04-01T13:16:55;11.50;;;1.40;;
47367;SDS011;34646;47.964;7.982;2023-04-01T13:36:33;9.75;;;1.02;;
47367;SDS011;34646;47.964;7.982;2023-04-01T13:49:20;4.70;;;0.75;;
47367;SDS011;34646;47.964;7.982;2023-04-01T14:20:40;9.05;;;1.00;;
47367;SDS011;34646;47.964;7.982;2023-04-01T14:39:48;12.60;;;1.40;;
47367;SDS011;34646;47.964;7.982;2023-04-01T14:46:13;4.70;;;0.98;;
47367;SDS011;34646;47.964;7.982;2023-04-01T14:58:21;8.57;;;1.83;;
47367;SDS011;34646;47.964;7.982;2023-04-01T15:16:53;6.55;;;0.90;;
47367;SDS011;34646;47.964;7.982;2023-04-01T15:23:15;6.03;;;1.20;;
47367;SDS011;34646;47.964;7.982;2023-04-01T15:36:24;8.00;;;1.05;;
47367;SDS011;34646;47.964;7.982;2023-04-01T15:42:40;8.10;;;1.63;;
47367;SDS011;34646;47.964;7.982;2023-04-01T16:01:39;3.33;;;0.65;;
47367;SDS011;34646;47.964;7.982;2023-04-01T16:26:24;4.90;;;0.60;;
47367;SDS011;34646;47.964;7.982;2023-04-01T16:32:44;8.00;;;0.70;;
47367;SDS011;34646;47.964;7.982;2023-04-01T16:45:43;6.03;;;1.08;;
47367;SDS011;34646;47.964;7.982;2023-04-01T16:51:54;3.47;;;0.50;;
47367;SDS011;34646;47.964;7.982;2023-04-01T16:58:20;5.32;;;0.75;;
47367;SDS011;34646;47.964;7.982;2023-04-01T17:11:00;5.88;;;0.93;;
47367;SDS011;34646;47.964;7.982;2023-04-01T17:17:20;6.07;;;1.17;;
47367;SDS011;34646;47.964;7.982;2023-04-01T17:23:39;7.00;;;0.80;;
47367;SDS011;34646;47.964;7.982;2023-04-01T17:29:59;9.35;;;0.93;;
47367;SDS011;34646;47.964;7.982;2023-04-01T17:36:24;9.48;;;1.15;;
47367;SDS011;34646;47.964;7.982;2023-04-01T18:20:36;7.70;;;1.10;;
47367;SDS011;34646;47.964;7.982;2023-04-01T18:46:20;8.10;;;1.33;;
47367;SDS011;34646;47.964;7.982;2023-04-01T18:52:37;7.50;;;1.33;;
47367;SDS011;34646;47.964;7.982;2023-04-01T18:58:54;8.07;;;1.20;;
47367;SDS011;34646;47.964;7.982;2023-04-01T19:05:20;7.50;;;1.60;;
47367;SDS011;34646;47.964;7.982;2023-04-01T19:11:33;13.47;;;1.40;;
47367;SDS011;34646;47.964;7.982;2023-04-01T19:37:33;6.05;;;1.08;;
47367;SDS011;34646;47.964;7.982;2023-04-01T19:43:53;4.70;;;0.60;;
47367;SDS011;34646;47.964;7.982;2023-04-01T19:56:35;8.35;;;1.65;;
47367;SDS011;34646;47.964;7.982;2023-04-01T20:09:15;9.35;;;1.15;;
47367;SDS011;34646;47.964;7.982;2023-04-01T20:15:36;3.13;;;0.85;;
47367;SDS011;34646;47.964;7.982;2023-04-01T20:21:45;5.95;;;0.70;;
47367;SDS011;34646;47.964;7.982;2023-04-01T20:27:49;12.52;;;1.00;;
47367;SDS011;34646;47.964;7.982;2023-04-01T20:40:35;3.03;;;0.63;;
47367;SDS011;34646;47.964;7.982;2023-04-01T20:59:24;3.53;;;0.90;;
47367;SDS011;34646;47.964;7.982;2023-04-01T21:12:20;6.82;;;0.77;;
47367;SDS011;34646;47.964;7.982;2023-04-01T21:24:39;1.52;;;0.60;;
47367;SDS011;34646;47.964;7.982;2023-04-01T21:31:24;5.95;;;0.93;;
47367;SDS011;34646;47.964;7.982;2023-04-01T21:37:49;2.10;;;0.70;;
47367;SDS011;34646;47.964;7.982;2023-04-01T22:09:34;1.92;;;0.73;;
47367;SDS011;34646;47.964;7.982;2023-04-01T22:16:10;2.58;;;0.50;;
47367;SDS011;34646;47.964;7.982;2023-04-01T22:29:00;0.55;;;0.30;;
47367;SDS011;34646;47.964;7.982;2023-04-01T22:35:33;4.13;;;0.98;;
47367;SDS011;34646;47.964;7.982;2023-04-01T22:47:56;2.83;;;0.98;;
47367;SDS011;34646;47.964;7.982;2023-04-01T22:54:13;3.45;;;0.63;;
47367;SDS011;34646;47.964;7.982;2023-04-01T23:00:24;2.78;;;0.57;;
47367;SDS011;34646;47.964;7.982;2023-04-01T23:06:29;2.20;;;0.98;;
47367;SDS011;34646;47.964;7.982;2023-04-01T23:12:44;3.97;;;0.75;;
47367;SDS011;34646;47.964;7.982;2023-04-01T23:18:49;2.00;;;0.60;;
47367;SDS011;34646;47.964;7.982;2023-04-01T23:31:26;1.60;;;0.40;;
47367;SDS011;34646;47.964;7.982;2023-04-01T23:37:29;2.05;;;0.50;;
47367;SDS011;34646;47.964;7.982;2023-04-01T23:43:35;2.47;;;0.70;;
47367;SDS011;34646;47.964;7.982;2023-04-01T23:49:39;0.85;;;0.38;;
47367;SDS011;34646;47.964;7.982;2023-04-01T23:55:48;3.22;;;0.50;;
